createdAt,value
2018-11-29T00:00:24.523Z,74.40
2018-11-29T00:02:52.963Z,74.40
2018-11-29T00:05:22.456Z,74.50
2018-11-29T00:07:51.301Z,75.20
2018-11-29T00:10:23.646Z,75.30
2018-11-29T00:12:53.535Z,75.50
2018-11-29T00:15:22.902Z,75.80
2018-11-29T00:17:52.131Z,75.60
2018-11-29T00:20:21.672Z,75.00
2018-11-29T00:22:51.189Z,75.00
2018-11-29T00:25:20.440Z,75.00
2018-11-29T00:27:49.334Z,75.10
2018-11-29T00:30:19.494Z,76.00
2018-11-29T00:32:48.559Z,76.10
2018-11-29T00:35:18.312Z,76.10
2018-11-29T00:37:47.367Z,76.30
2018-11-29T00:40:18.029Z,76.00
2018-11-29T00:42:46.470Z,76.10
2018-11-29T00:45:15.769Z,76.20
2018-11-29T00:47:44.748Z,76.70
2018-11-29T00:50:14.968Z,76.90
2018-11-29T00:52:44.552Z,77.10
2018-11-29T00:55:18.032Z,77.10
2018-11-29T00:57:46.656Z,77.00
2018-11-29T01:00:19.183Z,77.00
2018-11-29T01:02:47.694Z,76.50
2018-11-29T01:05:16.168Z,75.80
2018-11-29T01:07:45.289Z,75.30
2018-11-29T01:10:16.336Z,74.80
2018-11-29T01:12:45.893Z,74.20
2018-11-29T01:15:15.887Z,74.20
2018-11-29T01:17:45.250Z,74.00
2018-11-29T01:20:14.556Z,73.00
2018-11-29T01:22:43.681Z,72.80
2018-11-29T01:25:13.235Z,72.50
2018-11-29T01:27:42.833Z,72.30
2018-11-29T01:30:14.094Z,71.90
2018-11-29T01:32:43.133Z,71.90
2018-11-29T01:35:13.125Z,72.20
2018-11-29T01:37:41.803Z,72.50
2018-11-29T01:40:16.787Z,73.10
2018-11-29T01:42:46.420Z,73.50
2018-11-29T01:45:15.318Z,74.00
2018-11-29T01:47:43.783Z,73.90
2018-11-29T01:50:12.810Z,74.00
2018-11-29T01:52:41.899Z,74.40
2018-11-29T01:55:10.484Z,74.30
2018-11-29T01:57:39.016Z,74.30
2018-11-29T02:00:14.177Z,74.70
2018-11-29T02:02:42.741Z,74.90
2018-11-29T02:05:12.244Z,74.70
2018-11-29T02:07:40.887Z,74.70
2018-11-29T02:10:16.719Z,74.90
2018-11-29T02:12:45.297Z,75.00
2018-11-29T02:15:13.885Z,75.10
2018-11-29T02:17:42.415Z,75.30
2018-11-29T02:20:13.955Z,75.80
2018-11-29T02:22:42.560Z,75.70
2018-11-29T02:25:11.008Z,76.20
2018-11-29T02:27:39.786Z,76.40
2018-11-29T02:30:24.007Z,76.20
2018-11-29T02:32:53.334Z,76.10
2018-11-29T02:35:22.200Z,76.20
2018-11-29T02:37:51.054Z,76.30
2018-11-29T02:40:20.110Z,76.50
2018-11-29T02:42:49.850Z,76.60
2018-11-29T02:45:23.281Z,76.90
2018-11-29T02:47:51.804Z,76.80
2018-11-29T02:50:20.381Z,77.40
2018-11-29T02:52:48.925Z,76.30
2018-11-29T02:55:17.485Z,76.30
2018-11-29T02:57:46.113Z,76.40
2018-11-29T03:00:17.192Z,76.20
2018-11-29T03:02:45.742Z,76.40
2018-11-29T03:05:14.438Z,76.40
2018-11-29T03:07:43.095Z,76.00
2018-11-29T03:10:12.637Z,75.50
2018-11-29T03:12:41.581Z,75.50
2018-11-29T03:15:15.605Z,75.30
2018-11-29T03:17:44.663Z,75.20
2018-11-29T03:20:13.769Z,75.10
2018-11-29T03:22:42.521Z,75.10
2018-11-29T03:25:12.684Z,75.00
2018-11-29T03:27:41.133Z,75.20
2018-11-29T03:30:13.760Z,75.40
2018-11-29T03:32:42.372Z,75.90
2018-11-29T03:35:12.193Z,76.30
2018-11-29T03:37:40.711Z,76.20
2018-11-29T03:40:11.610Z,76.20
2018-11-29T03:42:39.367Z,76.30
2018-11-29T03:45:08.035Z,76.10
2018-11-29T03:47:35.859Z,76.10
2018-11-29T03:50:06.244Z,75.80
2018-11-29T03:52:35.005Z,75.40
2018-11-29T03:55:03.068Z,76.20
2018-11-29T03:57:30.942Z,75.00
2018-11-29T03:59:59.680Z,74.90
2018-11-29T04:02:28.546Z,75.00
2018-11-29T04:04:57.115Z,75.20
2018-11-29T04:07:25.827Z,75.20
2018-11-29T04:09:54.951Z,75.00
2018-11-29T04:12:22.732Z,75.10
2018-11-29T04:14:50.631Z,74.70
2018-11-29T04:17:18.292Z,75.30
2018-11-29T04:19:45.930Z,75.60
2018-11-29T04:22:13.641Z,75.80
2018-11-29T04:24:41.272Z,76.00
2018-11-29T04:27:09.016Z,76.10
2018-11-29T04:29:36.756Z,76.30
2018-11-29T04:32:04.481Z,76.30
2018-11-29T04:34:32.195Z,76.50
2018-11-29T04:36:59.848Z,76.40
2018-11-29T04:39:27.463Z,76.60
2018-11-29T04:41:55.180Z,76.80
2018-11-29T04:44:22.928Z,76.80
2018-11-29T04:46:51.412Z,77.00
2018-11-29T04:49:19.164Z,77.00
2018-11-29T04:51:46.974Z,76.90
2018-11-29T04:54:14.646Z,77.40
2018-11-29T04:56:42.304Z,77.40
2018-11-29T04:59:09.988Z,77.30
2018-11-29T05:01:38.034Z,77.40
2018-11-29T05:04:06.092Z,77.40
2018-11-29T05:06:33.828Z,77.50
2018-11-29T05:09:01.703Z,77.60
2018-11-29T05:11:29.374Z,77.50
2018-11-29T05:13:57.178Z,77.50
2018-11-29T05:16:24.861Z,77.50
2018-11-29T05:18:52.480Z,77.70
2018-11-29T05:21:20.117Z,77.50
2018-11-29T05:23:47.755Z,77.60
2018-11-29T05:26:15.447Z,77.90
2018-11-29T05:28:43.139Z,77.80
2018-11-29T05:31:10.802Z,77.70
2018-11-29T05:33:38.412Z,77.60
2018-11-29T05:36:06.252Z,77.70
2018-11-29T05:38:33.962Z,77.90
2018-11-29T05:41:01.915Z,77.90
2018-11-29T05:43:29.675Z,77.90
2018-11-29T05:45:57.365Z,77.90
2018-11-29T05:48:25.051Z,78.00
2018-11-29T05:50:52.710Z,78.10
2018-11-29T05:53:20.307Z,78.00
2018-11-29T05:55:47.960Z,78.20
2018-11-29T05:58:15.732Z,78.20
2018-11-29T06:00:43.667Z,78.20
2018-11-29T06:03:11.294Z,78.40
2018-11-29T06:05:39.501Z,78.20
2018-11-29T06:08:06.688Z,78.30
2018-11-29T06:10:34.323Z,78.00
2018-11-29T06:13:02.119Z,78.20
2018-11-29T06:15:29.767Z,78.20
2018-11-29T06:17:57.401Z,78.60
2018-11-29T06:20:25.957Z,78.80
2018-11-29T06:22:54.434Z,78.30
2018-11-29T06:25:22.826Z,77.60
2018-11-29T06:27:51.255Z,77.50
2018-11-29T06:30:20.737Z,77.40
2018-11-29T06:32:50.317Z,77.30
2018-11-29T06:35:18.826Z,77.60
2018-11-29T06:37:47.355Z,76.50
2018-11-29T06:40:16.643Z,76.30
2018-11-29T06:42:45.236Z,76.00
2018-11-29T06:45:17.630Z,75.90
2018-11-29T06:47:46.513Z,75.70
2018-11-29T06:50:15.156Z,75.80
2018-11-29T06:52:44.709Z,75.50
2018-11-29T06:55:18.327Z,75.50
2018-11-29T06:57:46.736Z,75.70
2018-11-29T07:00:19.365Z,75.90
2018-11-29T07:02:47.753Z,75.50
2018-11-29T07:05:16.140Z,75.70
2018-11-29T07:07:44.916Z,76.10
2018-11-29T07:10:13.361Z,75.90
2018-11-29T07:12:41.796Z,75.80
2018-11-29T07:15:13.291Z,75.90
2018-11-29T07:17:43.065Z,75.90
2018-11-29T07:20:14.872Z,75.50
2018-11-29T07:22:43.372Z,74.90
2018-11-29T07:25:11.920Z,75.40
2018-11-29T07:27:40.423Z,75.40
2018-11-29T07:30:11.364Z,75.50
2018-11-29T07:32:39.748Z,75.70
2018-11-29T07:35:09.864Z,75.60
2018-11-29T07:37:38.675Z,75.80
2018-11-29T07:40:10.208Z,76.00
2018-11-29T07:42:38.339Z,77.00
2018-11-29T07:45:10.566Z,76.70
2018-11-29T07:47:38.984Z,77.30
2018-11-29T07:50:12.637Z,77.70
2018-11-29T07:52:41.084Z,77.60
2018-11-29T07:55:11.219Z,77.60
2018-11-29T07:57:39.773Z,77.50
2018-11-29T08:00:11.165Z,77.70
2018-11-29T08:02:39.512Z,77.40
2018-11-29T08:05:10.500Z,77.50
2018-11-29T08:07:39.558Z,77.30
2018-11-29T08:10:09.769Z,77.00
2018-11-29T08:12:38.227Z,76.50
2018-11-29T08:15:09.638Z,76.20
2018-11-29T08:17:38.063Z,75.90
2018-11-29T08:20:09.832Z,75.60
2018-11-29T08:22:38.253Z,75.50
2018-11-29T08:25:07.263Z,75.40
2018-11-29T08:27:35.748Z,75.20
2018-11-29T08:30:06.132Z,74.80
2018-11-29T08:32:34.544Z,74.50
2018-11-29T08:35:02.968Z,74.20
2018-11-29T08:37:31.461Z,73.80
2018-11-29T08:39:59.951Z,73.60
2018-11-29T08:42:28.405Z,73.70
2018-11-29T08:44:56.920Z,73.40
2018-11-29T08:47:25.439Z,72.60
2018-11-29T08:49:53.873Z,72.00
2018-11-29T08:52:22.484Z,72.20
2018-11-29T08:54:51.086Z,72.20
2018-11-29T08:57:19.540Z,72.60
2018-11-29T08:59:47.997Z,72.20
2018-11-29T09:02:16.524Z,71.90
2018-11-29T09:04:45.049Z,71.20
2018-11-29T09:07:13.484Z,71.20
2018-11-29T09:09:41.953Z,71.10
2018-11-29T09:12:10.449Z,71.20
2018-11-29T09:14:38.923Z,71.10
2018-11-29T09:17:07.404Z,71.10
2018-11-29T09:19:37.463Z,71.10
2018-11-29T09:22:04.624Z,71.20
2018-11-29T09:24:33.018Z,71.00
2018-11-29T09:27:01.744Z,70.80
2018-11-29T09:29:30.387Z,70.60
2018-11-29T09:31:58.922Z,70.40
2018-11-29T09:34:27.299Z,71.00
2018-11-29T09:36:55.741Z,69.80
2018-11-29T09:39:24.148Z,69.80
2018-11-29T09:41:52.589Z,69.60
2018-11-29T09:44:22.098Z,69.40
2018-11-29T09:46:50.522Z,68.50
2018-11-29T09:49:19.313Z,67.60
2018-11-29T09:51:47.699Z,67.20
2018-11-29T09:54:16.133Z,66.60
2018-11-29T09:56:44.783Z,65.90
2018-11-29T09:59:13.179Z,65.70
2018-11-29T10:01:41.653Z,64.90
2018-11-29T10:04:10.060Z,64.30
2018-11-29T10:06:38.683Z,64.10
2018-11-29T10:09:09.940Z,63.80
2018-11-29T10:11:38.369Z,63.70
2018-11-29T10:14:06.951Z,63.20
2018-11-29T10:16:35.353Z,63.10
2018-11-29T10:19:03.834Z,63.20
2018-11-29T10:21:32.204Z,63.30
2018-11-29T10:24:00.700Z,63.20
2018-11-29T10:26:29.095Z,63.00
2018-11-29T10:28:57.803Z,62.80
2018-11-29T10:31:26.222Z,62.90
2018-11-29T10:33:54.631Z,62.80
2018-11-29T10:36:23.361Z,63.00
2018-11-29T10:38:51.852Z,63.60
2018-11-29T10:41:20.408Z,64.00
2018-11-29T10:43:48.937Z,64.30
2018-11-29T10:46:17.357Z,64.70
2018-11-29T10:48:45.755Z,65.20
2018-11-29T10:51:14.162Z,66.00
2018-11-29T10:53:42.555Z,65.70
2018-11-29T10:56:10.984Z,66.00
2018-11-29T10:58:39.408Z,66.00
2018-11-29T11:01:13.301Z,66.10
2018-11-29T11:03:41.737Z,66.10
2018-11-29T11:06:10.289Z,65.80
2018-11-29T11:08:38.812Z,65.40
2018-11-29T11:11:07.903Z,65.00
2018-11-29T11:13:37.871Z,63.80
2018-11-29T11:16:07.009Z,63.50
2018-11-29T11:18:35.993Z,62.70
2018-11-29T11:21:04.532Z,62.80
2018-11-29T11:23:33.065Z,62.40
2018-11-29T11:26:01.647Z,62.20
2018-11-29T11:28:30.430Z,61.80
2018-11-29T11:30:59.042Z,61.40
2018-11-29T11:33:27.552Z,59.10
2018-11-29T11:35:55.946Z,58.90
2018-11-29T11:38:24.459Z,58.30
2018-11-29T11:40:52.998Z,56.30
2018-11-29T11:43:21.484Z,56.40
2018-11-29T11:45:50.639Z,56.80
2018-11-29T11:48:19.108Z,56.90
2018-11-29T11:50:47.592Z,56.70
2018-11-29T11:53:16.040Z,57.00
2018-11-29T11:55:44.441Z,56.00
2018-11-29T11:58:12.836Z,56.30
2018-11-29T12:00:40.468Z,57.40
2018-11-29T12:03:12.843Z,57.40
2018-11-29T12:05:40.512Z,57.30
2018-11-29T12:08:08.291Z,57.40
2018-11-29T12:10:36.201Z,57.10
2018-11-29T12:13:04.059Z,57.30
2018-11-29T12:15:31.962Z,57.50
2018-11-29T12:17:59.603Z,57.20
2018-11-29T12:20:27.513Z,56.70
2018-11-29T12:22:55.154Z,57.20
2018-11-29T12:25:22.959Z,57.90
2018-11-29T12:27:51.043Z,57.60
2018-11-29T12:30:24.530Z,57.60
2018-11-29T12:32:52.880Z,57.50
2018-11-29T12:35:21.273Z,57.80
2018-11-29T12:37:49.647Z,57.80
2018-11-29T12:40:18.085Z,57.80
2018-11-29T12:42:46.451Z,57.70
2018-11-29T12:45:15.256Z,57.80
2018-11-29T12:47:44.259Z,58.10
2018-11-29T12:50:19.593Z,58.20
2018-11-29T12:52:48.106Z,58.20
2018-11-29T12:55:17.616Z,58.30
2018-11-29T12:57:46.071Z,59.00
2018-11-29T13:00:16.787Z,58.40
2018-11-29T13:02:46.492Z,58.80
2018-11-29T13:05:14.996Z,58.70
2018-11-29T13:07:43.559Z,58.60
2018-11-29T13:10:12.785Z,58.40
2018-11-29T13:12:41.169Z,58.40
2018-11-29T13:15:14.028Z,58.50
2018-11-29T13:17:42.657Z,58.60
2018-11-29T13:20:13.841Z,58.50
2018-11-29T13:22:42.284Z,58.60
2018-11-29T13:25:13.971Z,58.60
2018-11-29T13:27:42.663Z,58.70
2018-11-29T13:30:12.465Z,58.70
2018-11-29T13:32:41.132Z,58.80
2018-11-29T13:35:17.636Z,58.90
2018-11-29T13:37:48.547Z,59.00
2018-11-29T13:42:45.366Z,58.90
2018-11-29T13:45:14.018Z,58.80
2018-11-29T13:47:42.701Z,58.80
2018-11-29T13:50:12.408Z,58.80
2018-11-29T13:52:40.808Z,58.60
2018-11-29T13:55:10.493Z,58.70
2018-11-29T13:57:39.041Z,58.70
2018-11-29T14:00:14.638Z,58.70
2018-11-29T14:02:46.943Z,58.70
2018-11-29T14:05:12.150Z,59.60
2018-11-29T14:07:40.562Z,59.10
2018-11-29T14:10:13.552Z,59.30
2018-11-29T14:12:42.022Z,59.30
2018-11-29T14:15:12.979Z,59.20
2018-11-29T14:17:41.603Z,59.40
2018-11-29T14:20:11.076Z,59.50
2018-11-29T14:22:39.488Z,59.50
2018-11-29T14:25:10.207Z,59.70
2018-11-29T14:27:38.691Z,60.60
2018-11-29T14:30:24.845Z,59.80
2018-11-29T14:32:54.175Z,59.90
2018-11-29T14:35:22.578Z,60.10
2018-11-29T14:37:51.107Z,60.10
2018-11-29T14:40:23.763Z,61.00
2018-11-29T14:42:52.166Z,60.20
2018-11-29T14:45:27.477Z,60.40
2018-11-29T14:47:56.286Z,60.60
2018-11-29T14:50:37.177Z,60.70
2018-11-29T14:53:06.746Z,60.40
2018-11-29T14:55:35.929Z,60.10
2018-11-29T14:58:04.391Z,60.20
2018-11-29T15:00:32.817Z,60.20
2018-11-29T15:03:02.776Z,60.50
2018-11-29T15:05:32.194Z,60.50
2018-11-29T15:08:00.580Z,60.50
2018-11-29T15:10:29.173Z,61.30
2018-11-29T15:12:57.654Z,60.00
2018-11-29T15:15:26.046Z,60.10
2018-11-29T15:17:54.809Z,60.40
2018-11-29T15:20:24.617Z,60.20
2018-11-29T15:22:53.325Z,60.20
2018-11-29T15:25:21.941Z,60.40
2018-11-29T15:27:50.460Z,60.50
2018-11-29T15:30:20.559Z,60.60
2018-11-29T15:32:48.715Z,60.80
2018-11-29T15:35:17.125Z,60.90
2018-11-29T15:37:45.620Z,61.00
2018-11-29T15:40:16.227Z,61.10
2018-11-29T15:42:44.712Z,61.30
2018-11-29T15:45:18.489Z,61.40
2018-11-29T15:47:47.044Z,61.40
2018-11-29T15:50:16.026Z,61.50
2018-11-29T15:52:44.399Z,61.30
2018-11-29T15:55:14.830Z,61.10
2018-11-29T15:57:43.484Z,60.60
2018-11-29T16:00:19.260Z,60.80
2018-11-29T16:02:48.338Z,60.70
2018-11-29T16:05:16.773Z,60.80
2018-11-29T16:07:45.323Z,60.70
2018-11-29T16:10:16.876Z,60.90
2018-11-29T16:12:45.359Z,60.90
2018-11-29T16:15:15.030Z,61.20
2018-11-29T16:17:44.184Z,61.20
2018-11-29T16:20:14.956Z,60.70
2018-11-29T16:22:43.388Z,60.40
2018-11-29T16:25:12.237Z,60.20
2018-11-29T16:27:40.593Z,60.20
2018-11-29T16:30:13.147Z,60.00
2018-11-29T16:32:41.810Z,60.60
2018-11-29T16:35:10.284Z,60.60
2018-11-29T16:37:39.440Z,60.40
2018-11-29T16:40:09.003Z,60.40
2018-11-29T16:42:37.471Z,60.50
2018-11-29T16:45:10.437Z,60.90
2018-11-29T16:47:38.997Z,61.00
2018-11-29T16:50:09.804Z,61.20
2018-11-29T16:52:38.238Z,61.10
2018-11-29T16:55:07.968Z,61.50
2018-11-29T16:57:36.547Z,61.10
2018-11-29T17:00:10.621Z,60.60
2018-11-29T17:02:39.104Z,60.50
2018-11-29T17:05:09.169Z,60.40
2018-11-29T17:07:37.660Z,60.60
2018-11-29T17:10:08.849Z,60.50
2018-11-29T17:12:37.366Z,60.50
2018-11-29T17:15:10.283Z,60.30
2018-11-29T17:17:38.787Z,60.10
2018-11-29T17:20:10.963Z,60.30
2018-11-29T17:22:39.394Z,60.40
2018-11-29T17:25:09.458Z,60.60
2018-11-29T17:27:38.091Z,61.00
2018-11-29T17:30:18.769Z,61.20
2018-11-29T17:32:47.702Z,61.60
2018-11-29T17:35:16.227Z,61.70
2018-11-29T17:37:44.747Z,62.10
2018-11-29T17:40:14.402Z,62.40
2018-11-29T17:42:43.033Z,62.80
2018-11-29T17:45:27.308Z,62.60
2018-11-29T17:47:58.430Z,63.00
2018-11-29T17:50:29.638Z,63.00
2018-11-29T17:52:58.259Z,63.00
2018-11-29T17:55:26.767Z,63.20
2018-11-29T17:57:55.220Z,63.70
2018-11-29T18:00:26.965Z,63.60
2018-11-29T18:02:55.573Z,63.70
2018-11-29T18:05:24.131Z,63.70
2018-11-29T18:07:52.631Z,64.00
2018-11-29T18:10:24.100Z,64.30
2018-11-29T18:13:03.178Z,64.90
2018-11-29T18:15:33.476Z,64.40
2018-11-29T18:18:02.042Z,64.40
2018-11-29T18:20:30.475Z,64.20
2018-11-29T18:22:59.025Z,64.30
2018-11-29T18:25:27.439Z,64.10
2018-11-29T18:27:55.935Z,64.10
2018-11-29T18:30:24.397Z,64.20
2018-11-29T18:32:52.871Z,64.10
2018-11-29T18:35:21.629Z,64.10
2018-11-29T18:37:50.255Z,64.00
2018-11-29T18:40:22.479Z,63.80
2018-11-29T18:42:54.355Z,63.60
2018-11-29T18:45:22.963Z,63.40
2018-11-29T18:47:52.799Z,63.40
2018-11-29T18:50:23.435Z,63.50
2018-11-29T18:52:52.581Z,63.60
2018-11-29T18:55:24.367Z,63.70
2018-11-29T18:57:53.311Z,63.90
2018-11-29T19:00:27.836Z,64.10
2018-11-29T19:02:57.079Z,64.10
2018-11-29T19:05:25.232Z,64.30
2018-11-29T19:07:53.704Z,64.40
2018-11-29T19:10:22.698Z,64.70
2018-11-29T19:12:58.386Z,64.80
2018-11-29T19:15:26.913Z,64.90
2018-11-29T19:17:55.595Z,65.20
2018-11-29T19:20:24.049Z,65.10
2018-11-29T19:22:52.705Z,65.20
2018-11-29T19:25:21.336Z,65.10
2018-11-29T19:27:50.218Z,65.00
2018-11-29T19:30:21.109Z,65.10
2018-11-29T19:32:53.396Z,65.10
2018-11-29T19:35:21.898Z,64.90
2018-11-29T19:37:50.505Z,64.70
2018-11-29T19:40:19.039Z,64.60
2018-11-29T19:42:47.522Z,64.60
2018-11-29T19:45:16.417Z,64.70
2018-11-29T19:47:45.832Z,64.80
2018-11-29T19:50:18.053Z,64.90
2018-11-29T19:52:49.908Z,64.90
2018-11-29T19:55:21.740Z,64.90
2018-11-29T19:57:50.955Z,65.00
2018-11-29T20:00:20.505Z,65.20
2018-11-29T20:02:50.380Z,65.20
2018-11-29T20:05:19.707Z,65.30
2018-11-29T20:07:48.825Z,65.30
2018-11-29T20:10:18.444Z,65.40
2018-11-29T20:13:00.419Z,65.50
2018-11-29T20:15:29.582Z,65.50
2018-11-29T20:17:58.950Z,65.40
2018-11-29T20:20:28.104Z,65.40
2018-11-29T20:22:56.799Z,65.50
2018-11-29T20:25:26.533Z,65.60
2018-11-29T20:27:55.093Z,65.60
2018-11-29T20:30:24.330Z,65.50
2018-11-29T20:32:54.230Z,65.40
2018-11-29T20:35:23.112Z,65.30
2018-11-29T20:37:52.853Z,65.40
2018-11-29T20:40:23.721Z,65.70
2018-11-29T20:42:53.369Z,66.00
2018-11-29T20:45:27.542Z,66.10
2018-11-29T20:47:56.075Z,66.00
2018-11-29T20:50:26.206Z,65.90
2018-11-29T20:52:56.117Z,66.00
2018-11-29T20:55:30.019Z,66.00
2018-11-29T20:57:58.637Z,66.00
2018-11-29T21:00:27.089Z,66.10
2018-11-29T21:02:55.604Z,66.10
2018-11-29T21:05:25.215Z,66.20
2018-11-29T21:07:58.700Z,66.20
2018-11-29T21:10:27.366Z,66.30
2018-11-29T21:12:55.864Z,66.30
2018-11-29T21:15:25.010Z,66.40
2018-11-29T21:17:53.531Z,66.50
2018-11-29T21:20:22.272Z,66.60
2018-11-29T21:22:51.381Z,66.90
2018-11-29T21:25:22.353Z,67.10
2018-11-29T21:27:50.966Z,67.40
2018-11-29T21:30:19.518Z,67.50
2018-11-29T21:32:48.522Z,67.40
2018-11-29T21:35:20.179Z,67.50
2018-11-29T21:37:48.940Z,67.30
2018-11-29T21:40:32.648Z,67.20
2018-11-29T21:43:01.212Z,67.50
2018-11-29T21:45:30.773Z,67.50
2018-11-29T21:47:59.412Z,68.10
2018-11-29T21:50:28.022Z,68.50
2018-11-29T21:52:56.556Z,68.00
2018-11-29T21:55:25.107Z,68.60
2018-11-29T21:57:53.600Z,68.70
2018-11-29T22:00:22.918Z,69.70
2018-11-29T22:02:53.749Z,69.20
2018-11-29T22:05:22.382Z,69.20
2018-11-29T22:07:50.899Z,69.10
2018-11-29T22:10:19.452Z,69.00
2018-11-29T22:12:47.957Z,69.20
2018-11-29T22:15:16.553Z,69.00
2018-11-29T22:18:01.516Z,69.20
2018-11-29T22:20:24.625Z,69.10
2018-11-29T22:22:53.084Z,69.40
2018-11-29T22:25:21.592Z,69.60
2018-11-29T22:27:50.200Z,69.40
2018-11-29T22:30:18.680Z,69.50
2018-11-29T22:32:47.212Z,69.40
2018-11-29T22:35:15.664Z,69.40
2018-11-29T22:37:44.088Z,69.50
2018-11-29T22:40:12.568Z,70.00
2018-11-29T22:42:41.117Z,69.30
2018-11-29T22:45:09.724Z,69.30
2018-11-29T22:47:38.284Z,69.80
2018-11-29T22:50:07.941Z,69.30
2018-11-29T22:52:36.529Z,69.00
2018-11-29T22:55:05.641Z,69.20
2018-11-29T22:57:34.124Z,69.50
2018-11-29T23:00:02.793Z,69.00
2018-11-29T23:02:31.362Z,69.10
2018-11-29T23:04:59.868Z,69.10
2018-11-29T23:07:28.688Z,69.00
2018-11-29T23:09:57.161Z,69.20
2018-11-29T23:12:25.778Z,69.40
2018-11-29T23:14:54.536Z,69.50
2018-11-29T23:17:23.032Z,69.80
2018-11-29T23:19:51.536Z,69.90
2018-11-29T23:22:20.012Z,70.00
2018-11-29T23:24:48.608Z,70.50
2018-11-29T23:27:17.145Z,69.80
2018-11-29T23:29:45.754Z,69.60
2018-11-29T23:32:14.315Z,69.50
2018-11-29T23:34:42.844Z,69.50
2018-11-29T23:37:11.441Z,69.60
2018-11-29T23:39:40.003Z,69.70
2018-11-29T23:42:08.647Z,69.80
2018-11-29T23:44:37.452Z,71.00
2018-11-29T23:47:06.130Z,70.20
2018-11-29T23:49:34.759Z,70.30
2018-11-29T23:52:03.205Z,70.30
2018-11-29T23:54:31.872Z,70.30
2018-11-29T23:57:00.368Z,70.20
2018-11-29T23:59:28.797Z,70.30
